Strona główna
METAR-TAF:

METAR-TAF

Lotnisko :

Port lotniczy Kuressaare

Kuressaare, Estonia

Szerokość geograficzna: 58-13-48N, Długość geograficzna: 022-30-34E, wysokość: 4 m

Aktualna obserwacja pogody

Raport powstał 46 minut temu, godzina 07:50 UTC
Wiatr 12 kt od południowo-południowy zachód
Temperatura 9°C
Wilgotność 61%
Ciśnienie 1021 hPa
Widzialność 10 km lub więcej

METAR: EEKE 070750Z AUTO 20012KT 9999NDV NCD 09/02 Q1021

czas: 11:36 (08:36 UTC)


TAF: brakujący

Obserwacja i prognoza pogody dla ponad 4000 lotnisk (raport METAR i TAF).

Dostępne stacje oznaczono żółtymi i czerwonymi punktami na mapie.

Najedź kursorem aby zobaczyć nazwę stacji.

Kliknij aby zobaczyć obserwacje i prognozy pogody.

Aby zmienić mapę: kliknij na zielony przycisk z czarnym krzyżykiem, aby powiększyć; na zielony przycisk z myślnikiem, aby pomniejszyć; na zielone strzałki, aby przejść do map sąsiednich.


METAR-TAF: